Robert Majczan

Alter: 31 Jahre
Land: Österreich
Schnopser seit: 31.12.2016
Fairness Rating: 100%
Gespielte Bummerl: 5099
Davon gewonnen: 2871
Siegesrate: 56%
ELO: 1361

Turnierteilnahmen

Bisher noch kein Turnier gespielt


Die letzten 25 gespielten Bummerl

Zeit Gegner Ergebnis Ende Credits Elo
18:20:02 am 26.01.2020 Alexandra Pammer 4:7 normal -200 1361 (-12)
18:15:47 am 26.01.2020 Sabine 3:7 normal -200 1373 (-11)
16:23:46 am 26.01.2020 Boris Vegic 8:6 normal 200 1384 (7)
16:19:16 am 26.01.2020 Elisa Urli 8:3 normal 100 1377 (9)
21:38:50 am 24.01.2020 Babs007 7:6 normal - 1368 (10)
21:31:59 am 24.01.2020 sepp65 7:4 normal - 1358 (13)
21:27:37 am 24.01.2020 GrandmasterG 8:2 normal - 1345 (9)
21:20:54 am 24.01.2020 Maxl 6:7 normal - 1336 (-13)
21:14:57 am 24.01.2020 Attila 7:4 normal - 1349 (6)
21:10:28 am 24.01.2020 Hr Heinz 7:2 normal - 1343 (10)
21:07:04 am 24.01.2020 Aries 7:0 normal - 1333 (10)
21:03:13 am 24.01.2020 cupi 7:6 normal - 1323 (8)
20:57:07 am 24.01.2020 Martin Winkler 7:5 normal - 1315 (8)
20:51:23 am 24.01.2020 ionel 7:4 normal - 1307 (7)
20:46:25 am 24.01.2020 thesi 6:8 normal -100 1300 (-10)
18:52:50 am 24.01.2020 Sillw.ROSI 2:8 normal -200 1310 (-13)
18:49:12 am 24.01.2020 Tomi123 7:0 normal 100 1323 (6)
17:07:01 am 24.01.2020 Schnecke 21 6:7 normal -1000 1317 (-9)
17:02:37 am 24.01.2020 Mandy 7:0 normal 500 1326 (15)
10:41:12 am 24.01.2020 Ermbe 5:8 normal -1000 1311 (-9)
09:20:46 am 24.01.2020 roly 7:4 normal 500 1320 (8)
13:58:01 am 23.01.2020 Mr. Bean 7:2 normal 500 1312 (7)
13:22:32 am 23.01.2020 Speedy 8:0 normal 200 1305 (13)
13:19:52 am 23.01.2020 Speedy 7:1 normal 200 1292 (9)
13:16:04 am 23.01.2020 Lore meierhofer 7:1 normal 100 1283 (8)